sensor_id;sensor_type;location;lat;lon;timestamp;P1;durP1;ratioP1;P2;durP2;ratioP2
4652;SDS011;9900;48.738;9.306;2023-05-15T00:00:32;7.90;;;6.67;;
4652;SDS011;9900;48.738;9.306;2023-05-15T00:03:02;8.87;;;6.23;;
4652;SDS011;9900;48.738;9.306;2023-05-15T00:05:31;6.93;;;6.20;;
4652;SDS011;9900;48.738;9.306;2023-05-15T00:08:00;11.40;;;6.60;;
4652;SDS011;9900;48.738;9.306;2023-05-15T00:10:28;7.70;;;6.10;;
4652;SDS011;9900;48.738;9.306;2023-05-15T00:12:57;7.70;;;6.90;;
4652;SDS011;9900;48.738;9.306;2023-05-15T00:15:25;12.43;;;6.40;;
4652;SDS011;9900;48.738;9.306;2023-05-15T00:17:54;6.90;;;6.20;;
4652;SDS011;9900;48.738;9.306;2023-05-15T00:20:24;9.90;;;5.70;;
4652;SDS011;9900;48.738;9.306;2023-05-15T00:22:53;8.20;;;6.47;;
4652;SDS011;9900;48.738;9.306;2023-05-15T00:25:21;8.77;;;6.13;;
4652;SDS011;9900;48.738;9.306;2023-05-15T00:27:50;8.80;;;6.00;;
4652;SDS011;9900;48.738;9.306;2023-05-15T00:30:19;9.17;;;6.47;;
4652;SDS011;9900;48.738;9.306;2023-05-15T00:32:48;6.47;;;5.77;;
4652;SDS011;9900;48.738;9.306;2023-05-15T00:35:17;6.70;;;6.00;;
4652;SDS011;9900;48.738;9.306;2023-05-15T00:37:47;10.77;;;6.60;;
4652;SDS011;9900;48.738;9.306;2023-05-15T00:40:17;9.17;;;6.17;;
4652;SDS011;9900;48.738;9.306;2023-05-15T00:42:48;6.50;;;5.63;;
4652;SDS011;9900;48.738;9.306;2023-05-15T00:45:17;8.27;;;6.50;;
4652;SDS011;9900;48.738;9.306;2023-05-15T00:47:46;8.67;;;6.73;;
4652;SDS011;9900;48.738;9.306;2023-05-15T00:50:16;8.30;;;5.83;;
4652;SDS011;9900;48.738;9.306;2023-05-15T00:52:47;7.40;;;6.20;;
4652;SDS011;9900;48.738;9.306;2023-05-15T00:55:16;8.07;;;6.10;;
4652;SDS011;9900;48.738;9.306;2023-05-15T00:57:44;6.30;;;5.67;;
4652;SDS011;9900;48.738;9.306;2023-05-15T01:00:15;7.57;;;6.40;;
4652;SDS011;9900;48.738;9.306;2023-05-15T01:02:44;12.13;;;7.17;;
4652;SDS011;9900;48.738;9.306;2023-05-15T01:05:13;10.37;;;6.30;;
4652;SDS011;9900;48.738;9.306;2023-05-15T01:07:44;9.20;;;6.40;;
4652;SDS011;9900;48.738;9.306;2023-05-15T01:10:16;7.83;;;5.90;;
4652;SDS011;9900;48.738;9.306;2023-05-15T01:12:45;7.03;;;6.33;;
4652;SDS011;9900;48.738;9.306;2023-05-15T01:15:14;10.57;;;6.50;;
4652;SDS011;9900;48.738;9.306;2023-05-15T01:17:43;7.10;;;5.63;;
4652;SDS011;9900;48.738;9.306;2023-05-15T01:20:12;8.50;;;6.67;;
4652;SDS011;9900;48.738;9.306;2023-05-15T01:22:46;7.43;;;5.73;;
4652;SDS011;9900;48.738;9.306;2023-05-15T01:28:29;8.67;;;6.13;;
4652;SDS011;9900;48.738;9.306;2023-05-15T01:31:00;7.50;;;6.37;;
4652;SDS011;9900;48.738;9.306;2023-05-15T01:33:34;10.87;;;6.90;;
4652;SDS011;9900;48.738;9.306;2023-05-15T01:36:07;7.37;;;6.47;;
4652;SDS011;9900;48.738;9.306;2023-05-15T01:38:40;6.57;;;5.97;;
4652;SDS011;9900;48.738;9.306;2023-05-15T01:41:12;8.33;;;6.20;;
4652;SDS011;9900;48.738;9.306;2023-05-15T01:43:45;7.90;;;6.53;;
4652;SDS011;9900;48.738;9.306;2023-05-15T01:46:18;8.67;;;6.50;;
4652;SDS011;9900;48.738;9.306;2023-05-15T01:48:49;6.90;;;6.20;;
4652;SDS011;9900;48.738;9.306;2023-05-15T01:51:19;9.83;;;7.53;;
4652;SDS011;9900;48.738;9.306;2023-05-15T01:53:48;6.70;;;6.10;;
4652;SDS011;9900;48.738;9.306;2023-05-15T01:56:17;7.93;;;6.83;;
4652;SDS011;9900;48.738;9.306;2023-05-15T01:58:48;10.73;;;6.50;;
4652;SDS011;9900;48.738;9.306;2023-05-15T02:01:17;8.10;;;7.20;;
4652;SDS011;9900;48.738;9.306;2023-05-15T02:03:46;7.83;;;6.97;;
4652;SDS011;9900;48.738;9.306;2023-05-15T02:06:15;7.53;;;6.00;;
4652;SDS011;9900;48.738;9.306;2023-05-15T02:08:44;9.40;;;6.50;;
4652;SDS011;9900;48.738;9.306;2023-05-15T02:11:13;7.40;;;6.70;;
4652;SDS011;9900;48.738;9.306;2023-05-15T02:13:42;8.33;;;6.87;;
4652;SDS011;9900;48.738;9.306;2023-05-15T02:16:13;7.20;;;6.30;;
4652;SDS011;9900;48.738;9.306;2023-05-15T02:18:42;9.03;;;6.17;;
4652;SDS011;9900;48.738;9.306;2023-05-15T02:21:11;9.30;;;7.40;;
4652;SDS011;9900;48.738;9.306;2023-05-15T02:23:39;8.57;;;6.47;;
4652;SDS011;9900;48.738;9.306;2023-05-15T02:26:11;8.33;;;6.50;;
4652;SDS011;9900;48.738;9.306;2023-05-15T02:28:46;7.17;;;6.40;;
4652;SDS011;9900;48.738;9.306;2023-05-15T02:31:21;9.90;;;6.50;;
4652;SDS011;9900;48.738;9.306;2023-05-15T02:33:54;8.13;;;6.60;;
4652;SDS011;9900;48.738;9.306;2023-05-15T02:36:27;7.97;;;6.33;;
4652;SDS011;9900;48.738;9.306;2023-05-15T02:38:58;8.50;;;6.97;;
4652;SDS011;9900;48.738;9.306;2023-05-15T02:41:27;7.40;;;6.53;;
4652;SDS011;9900;48.738;9.306;2023-05-15T02:43:55;8.77;;;7.20;;
4652;SDS011;9900;48.738;9.306;2023-05-15T02:46:27;8.10;;;6.20;;
4652;SDS011;9900;48.738;9.306;2023-05-15T02:48:57;8.30;;;6.07;;
4652;SDS011;9900;48.738;9.306;2023-05-15T02:51:25;6.80;;;6.10;;
4652;SDS011;9900;48.738;9.306;2023-05-15T02:53:55;8.40;;;6.10;;
4652;SDS011;9900;48.738;9.306;2023-05-15T02:56:23;10.00;;;6.27;;
4652;SDS011;9900;48.738;9.306;2023-05-15T02:58:52;10.73;;;7.23;;
4652;SDS011;9900;48.738;9.306;2023-05-15T03:01:21;8.93;;;6.97;;
4652;SDS011;9900;48.738;9.306;2023-05-15T03:03:51;9.47;;;6.10;;
4652;SDS011;9900;48.738;9.306;2023-05-15T03:06:20;9.97;;;7.10;;
4652;SDS011;9900;48.738;9.306;2023-05-15T03:08:48;12.40;;;6.27;;
4652;SDS011;9900;48.738;9.306;2023-05-15T03:11:17;9.33;;;6.70;;
4652;SDS011;9900;48.738;9.306;2023-05-15T03:13:47;7.83;;;6.73;;
4652;SDS011;9900;48.738;9.306;2023-05-15T03:16:16;11.80;;;6.83;;
4652;SDS011;9900;48.738;9.306;2023-05-15T03:18:44;6.87;;;6.20;;
4652;SDS011;9900;48.738;9.306;2023-05-15T03:21:15;7.30;;;6.13;;
4652;SDS011;9900;48.738;9.306;2023-05-15T03:23:43;9.87;;;6.30;;
4652;SDS011;9900;48.738;9.306;2023-05-15T03:26:12;8.17;;;6.13;;
4652;SDS011;9900;48.738;9.306;2023-05-15T03:28:41;8.57;;;7.33;;
4652;SDS011;9900;48.738;9.306;2023-05-15T03:31:09;13.70;;;7.90;;
4652;SDS011;9900;48.738;9.306;2023-05-15T03:33:38;15.43;;;8.60;;
4652;SDS011;9900;48.738;9.306;2023-05-15T03:36:07;13.10;;;7.87;;
4652;SDS011;9900;48.738;9.306;2023-05-15T03:38:37;12.87;;;9.43;;
4652;SDS011;9900;48.738;9.306;2023-05-15T03:41:06;13.20;;;7.80;;
4652;SDS011;9900;48.738;9.306;2023-05-15T03:43:34;15.10;;;7.63;;
4652;SDS011;9900;48.738;9.306;2023-05-15T03:46:03;8.17;;;7.17;;
4652;SDS011;9900;48.738;9.306;2023-05-15T03:48:32;11.37;;;7.80;;
4652;SDS011;9900;48.738;9.306;2023-05-15T03:51:01;8.73;;;6.37;;
4652;SDS011;9900;48.738;9.306;2023-05-15T03:53:29;8.13;;;6.83;;
4652;SDS011;9900;48.738;9.306;2023-05-15T03:55:59;6.63;;;6.03;;
4652;SDS011;9900;48.738;9.306;2023-05-15T03:58:29;8.00;;;5.97;;
4652;SDS011;9900;48.738;9.306;2023-05-15T04:00:59;7.03;;;6.20;;
4652;SDS011;9900;48.738;9.306;2023-05-15T04:03:27;9.47;;;7.10;;
4652;SDS011;9900;48.738;9.306;2023-05-15T04:05:56;8.53;;;6.40;;
4652;SDS011;9900;48.738;9.306;2023-05-15T04:08:25;11.20;;;6.70;;
4652;SDS011;9900;48.738;9.306;2023-05-15T04:10:53;7.90;;;6.10;;
4652;SDS011;9900;48.738;9.306;2023-05-15T04:13:23;9.43;;;6.03;;
4652;SDS011;9900;48.738;9.306;2023-05-15T04:15:52;8.37;;;6.10;;
4652;SDS011;9900;48.738;9.306;2023-05-15T04:18:21;8.77;;;6.50;;
4652;SDS011;9900;48.738;9.306;2023-05-15T04:20:49;6.90;;;5.77;;
4652;SDS011;9900;48.738;9.306;2023-05-15T04:23:18;10.37;;;6.03;;
4652;SDS011;9900;48.738;9.306;2023-05-15T04:25:47;6.40;;;5.70;;
4652;SDS011;9900;48.738;9.306;2023-05-15T04:28:15;7.13;;;6.03;;
4652;SDS011;9900;48.738;9.306;2023-05-15T04:30:47;9.33;;;5.90;;
4652;SDS011;9900;48.738;9.306;2023-05-15T04:33:16;6.77;;;5.80;;
4652;SDS011;9900;48.738;9.306;2023-05-15T04:35:44;7.53;;;5.30;;
4652;SDS011;9900;48.738;9.306;2023-05-15T04:38:14;6.80;;;5.80;;
4652;SDS011;9900;48.738;9.306;2023-05-15T04:40:44;6.80;;;5.90;;
4652;SDS011;9900;48.738;9.306;2023-05-15T04:43:12;9.20;;;5.60;;
4652;SDS011;9900;48.738;9.306;2023-05-15T04:45:41;7.00;;;5.80;;
4652;SDS011;9900;48.738;9.306;2023-05-15T04:48:11;7.83;;;6.33;;
4652;SDS011;9900;48.738;9.306;2023-05-15T04:50:40;12.70;;;6.50;;
4652;SDS011;9900;48.738;9.306;2023-05-15T04:53:09;9.00;;;5.90;;
4652;SDS011;9900;48.738;9.306;2023-05-15T04:55:38;5.97;;;5.37;;
4652;SDS011;9900;48.738;9.306;2023-05-15T04:58:06;10.67;;;6.40;;
4652;SDS011;9900;48.738;9.306;2023-05-15T05:00:35;6.80;;;6.10;;
4652;SDS011;9900;48.738;9.306;2023-05-15T05:03:04;8.53;;;6.47;;
4652;SDS011;9900;48.738;9.306;2023-05-15T05:05:34;6.60;;;5.90;;
4652;SDS011;9900;48.738;9.306;2023-05-15T05:08:02;7.00;;;5.40;;
4652;SDS011;9900;48.738;9.306;2023-05-15T05:10:31;6.77;;;5.70;;
4652;SDS011;9900;48.738;9.306;2023-05-15T05:13:00;7.93;;;5.90;;
4652;SDS011;9900;48.738;9.306;2023-05-15T05:15:28;12.50;;;6.10;;
4652;SDS011;9900;48.738;9.306;2023-05-15T05:17:57;7.50;;;5.67;;
4652;SDS011;9900;48.738;9.306;2023-05-15T05:20:26;6.23;;;5.10;;
4652;SDS011;9900;48.738;9.306;2023-05-15T05:22:56;6.70;;;5.50;;
4652;SDS011;9900;48.738;9.306;2023-05-15T05:25:24;7.93;;;5.40;;
4652;SDS011;9900;48.738;9.306;2023-05-15T05:27:53;7.17;;;5.30;;
4652;SDS011;9900;48.738;9.306;2023-05-15T05:30:22;12.90;;;4.93;;
4652;SDS011;9900;48.738;9.306;2023-05-15T05:32:50;9.40;;;5.50;;
4652;SDS011;9900;48.738;9.306;2023-05-15T05:35:19;8.43;;;5.20;;
4652;SDS011;9900;48.738;9.306;2023-05-15T05:37:48;6.57;;;5.13;;
4652;SDS011;9900;48.738;9.306;2023-05-15T05:40:18;7.03;;;5.00;;
4652;SDS011;9900;48.738;9.306;2023-05-15T05:42:46;6.53;;;5.10;;
4652;SDS011;9900;48.738;9.306;2023-05-15T05:45:15;6.57;;;4.37;;
4652;SDS011;9900;48.738;9.306;2023-05-15T05:47:44;9.93;;;5.70;;
4652;SDS011;9900;48.738;9.306;2023-05-15T05:50:12;15.13;;;6.10;;
4652;SDS011;9900;48.738;9.306;2023-05-15T05:52:41;10.20;;;5.23;;
4652;SDS011;9900;48.738;9.306;2023-05-15T05:55:10;5.60;;;4.90;;
4652;SDS011;9900;48.738;9.306;2023-05-15T05:57:40;5.80;;;5.20;;
4652;SDS011;9900;48.738;9.306;2023-05-15T06:00:09;6.77;;;6.10;;
4652;SDS011;9900;48.738;9.306;2023-05-15T06:02:39;7.20;;;5.90;;
4652;SDS011;9900;48.738;9.306;2023-05-15T06:05:08;5.93;;;5.33;;
4652;SDS011;9900;48.738;9.306;2023-05-15T06:07:36;8.93;;;6.40;;
4652;SDS011;9900;48.738;9.306;2023-05-15T06:10:06;7.80;;;6.70;;
4652;SDS011;9900;48.738;9.306;2023-05-15T06:12:36;8.23;;;6.83;;
4652;SDS011;9900;48.738;9.306;2023-05-15T06:15:06;7.77;;;6.80;;
4652;SDS011;9900;48.738;9.306;2023-05-15T06:17:36;9.20;;;7.20;;
4652;SDS011;9900;48.738;9.306;2023-05-15T06:20:05;10.30;;;6.03;;
4652;SDS011;9900;48.738;9.306;2023-05-15T06:22:35;6.57;;;5.87;;
4652;SDS011;9900;48.738;9.306;2023-05-15T06:25:05;6.20;;;5.30;;
4652;SDS011;9900;48.738;9.306;2023-05-15T06:27:34;7.73;;;5.10;;
4652;SDS011;9900;48.738;9.306;2023-05-15T06:30:03;5.90;;;5.30;;
4652;SDS011;9900;48.738;9.306;2023-05-15T06:32:34;8.30;;;6.30;;
4652;SDS011;9900;48.738;9.306;2023-05-15T06:35:03;6.90;;;5.17;;
4652;SDS011;9900;48.738;9.306;2023-05-15T06:37:32;5.53;;;5.03;;
4652;SDS011;9900;48.738;9.306;2023-05-15T06:40:01;7.90;;;5.93;;
4652;SDS011;9900;48.738;9.306;2023-05-15T06:42:30;6.60;;;6.00;;
4652;SDS011;9900;48.738;9.306;2023-05-15T06:44:59;6.73;;;6.03;;
4652;SDS011;9900;48.738;9.306;2023-05-15T06:47:27;8.13;;;6.23;;
4652;SDS011;9900;48.738;9.306;2023-05-15T06:49:57;6.67;;;6.07;;
4652;SDS011;9900;48.738;9.306;2023-05-15T06:52:26;9.33;;;5.70;;
4652;SDS011;9900;48.738;9.306;2023-05-15T06:54:55;10.00;;;6.37;;
4652;SDS011;9900;48.738;9.306;2023-05-15T06:57:24;9.50;;;6.83;;
4652;SDS011;9900;48.738;9.306;2023-05-15T06:59:52;7.33;;;5.70;;
4652;SDS011;9900;48.738;9.306;2023-05-15T07:02:21;9.20;;;6.90;;
4652;SDS011;9900;48.738;9.306;2023-05-15T07:04:50;8.07;;;6.80;;
4652;SDS011;9900;48.738;9.306;2023-05-15T07:07:20;7.50;;;6.70;;
4652;SDS011;9900;48.738;9.306;2023-05-15T07:09:48;8.43;;;6.30;;
4652;SDS011;9900;48.738;9.306;2023-05-15T07:12:17;7.77;;;6.70;;
4652;SDS011;9900;48.738;9.306;2023-05-15T07:14:46;8.53;;;6.83;;
4652;SDS011;9900;48.738;9.306;2023-05-15T07:17:15;6.97;;;6.27;;
4652;SDS011;9900;48.738;9.306;2023-05-15T07:19:43;7.17;;;5.93;;
4652;SDS011;9900;48.738;9.306;2023-05-15T07:22:12;6.77;;;5.80;;
4652;SDS011;9900;48.738;9.306;2023-05-15T07:24:42;6.27;;;5.47;;
4652;SDS011;9900;48.738;9.306;2023-05-15T07:27:11;8.33;;;5.93;;
4652;SDS011;9900;48.738;9.306;2023-05-15T07:29:39;8.57;;;6.07;;
4652;SDS011;9900;48.738;9.306;2023-05-15T07:32:08;6.93;;;5.67;;
4652;SDS011;9900;48.738;9.306;2023-05-15T07:34:37;10.40;;;4.80;;
4652;SDS011;9900;48.738;9.306;2023-05-15T07:37:06;6.50;;;5.57;;
4652;SDS011;9900;48.738;9.306;2023-05-15T07:39:34;8.10;;;4.83;;
4652;SDS011;9900;48.738;9.306;2023-05-15T07:42:05;7.27;;;6.33;;
4652;SDS011;9900;48.738;9.306;2023-05-15T07:44:34;5.70;;;5.10;;
4652;SDS011;9900;48.738;9.306;2023-05-15T07:47:02;5.77;;;5.17;;
4652;SDS011;9900;48.738;9.306;2023-05-15T07:49:31;6.67;;;5.87;;
4652;SDS011;9900;48.738;9.306;2023-05-15T07:52:00;9.20;;;6.17;;
4652;SDS011;9900;48.738;9.306;2023-05-15T07:54:28;8.03;;;5.40;;
4652;SDS011;9900;48.738;9.306;2023-05-15T07:56:58;10.13;;;5.10;;
4652;SDS011;9900;48.738;9.306;2023-05-15T07:59:28;5.70;;;5.20;;
4652;SDS011;9900;48.738;9.306;2023-05-15T08:01:57;7.33;;;5.10;;
4652;SDS011;9900;48.738;9.306;2023-05-15T08:04:26;4.83;;;4.03;;
4652;SDS011;9900;48.738;9.306;2023-05-15T08:06:55;4.67;;;3.10;;
4652;SDS011;9900;48.738;9.306;2023-05-15T08:09:24;3.83;;;3.53;;
4652;SDS011;9900;48.738;9.306;2023-05-15T08:11:54;5.70;;;3.33;;
4652;SDS011;9900;48.738;9.306;2023-05-15T08:14:23;3.67;;;3.30;;
4652;SDS011;9900;48.738;9.306;2023-05-15T08:16:53;6.67;;;3.30;;
4652;SDS011;9900;48.738;9.306;2023-05-15T08:19:22;4.07;;;3.67;;
4652;SDS011;9900;48.738;9.306;2023-05-15T08:21:50;4.17;;;3.27;;
4652;SDS011;9900;48.738;9.306;2023-05-15T08:24:19;6.93;;;3.70;;
4652;SDS011;9900;48.738;9.306;2023-05-15T08:26:48;5.67;;;3.23;;
4652;SDS011;9900;48.738;9.306;2023-05-15T08:29:16;4.10;;;3.03;;
4652;SDS011;9900;48.738;9.306;2023-05-15T08:31:45;7.57;;;3.17;;
4652;SDS011;9900;48.738;9.306;2023-05-15T08:34:15;3.43;;;3.13;;
4652;SDS011;9900;48.738;9.306;2023-05-15T08:36:44;13.97;;;3.70;;
4652;SDS011;9900;48.738;9.306;2023-05-15T08:39:12;3.47;;;3.17;;
4652;SDS011;9900;48.738;9.306;2023-05-15T08:41:43;5.00;;;3.20;;
4652;SDS011;9900;48.738;9.306;2023-05-15T08:44:15;4.20;;;3.13;;
4652;SDS011;9900;48.738;9.306;2023-05-15T08:46:43;5.80;;;2.80;;
4652;SDS011;9900;48.738;9.306;2023-05-15T08:49:13;4.83;;;2.93;;
4652;SDS011;9900;48.738;9.306;2023-05-15T08:51:46;4.70;;;2.80;;
4652;SDS011;9900;48.738;9.306;2023-05-15T08:54:15;3.43;;;3.13;;
4652;SDS011;9900;48.738;9.306;2023-05-15T08:56:45;3.13;;;2.93;;
4652;SDS011;9900;48.738;9.306;2023-05-15T08:59:14;3.30;;;3.00;;
4652;SDS011;9900;48.738;9.306;2023-05-15T09:01:42;4.40;;;2.90;;
4652;SDS011;9900;48.738;9.306;2023-05-15T09:04:11;4.23;;;3.73;;
4652;SDS011;9900;48.738;9.306;2023-05-15T09:06:41;4.20;;;2.83;;
4652;SDS011;9900;48.738;9.306;2023-05-15T09:09:11;5.40;;;3.80;;
4652;SDS011;9900;48.738;9.306;2023-05-15T09:11:40;3.33;;;3.13;;
4652;SDS011;9900;48.738;9.306;2023-05-15T09:14:11;3.50;;;3.20;;
4652;SDS011;9900;48.738;9.306;2023-05-15T09:16:40;3.50;;;3.20;;
4652;SDS011;9900;48.738;9.306;2023-05-15T09:19:08;3.80;;;2.70;;
4652;SDS011;9900;48.738;9.306;2023-05-15T09:21:38;3.10;;;2.80;;
4652;SDS011;9900;48.738;9.306;2023-05-15T09:24:18;5.10;;;2.90;;
4652;SDS011;9900;48.738;9.306;2023-05-15T09:26:59;4.20;;;3.33;;
4652;SDS011;9900;48.738;9.306;2023-05-15T09:29:30;3.37;;;3.03;;
4652;SDS011;9900;48.738;9.306;2023-05-15T09:32:00;3.30;;;3.00;;
4652;SDS011;9900;48.738;9.306;2023-05-15T09:34:30;3.30;;;3.00;;
4652;SDS011;9900;48.738;9.306;2023-05-15T09:36:59;3.70;;;3.23;;
4652;SDS011;9900;48.738;9.306;2023-05-15T09:39:30;4.03;;;3.57;;
4652;SDS011;9900;48.738;9.306;2023-05-15T09:42:06;5.30;;;2.80;;
4652;SDS011;9900;48.738;9.306;2023-05-15T09:44:39;2.40;;;2.20;;
4652;SDS011;9900;48.738;9.306;2023-05-15T09:47:08;3.90;;;2.63;;
4652;SDS011;9900;48.738;9.306;2023-05-15T09:49:37;4.03;;;3.30;;
4652;SDS011;9900;48.738;9.306;2023-05-15T09:52:07;4.00;;;3.30;;
4652;SDS011;9900;48.738;9.306;2023-05-15T09:54:38;3.37;;;2.70;;
4652;SDS011;9900;48.738;9.306;2023-05-15T09:57:07;4.53;;;2.70;;
4652;SDS011;9900;48.738;9.306;2023-05-15T09:59:41;7.43;;;3.37;;
4652;SDS011;9900;48.738;9.306;2023-05-15T10:02:12;3.43;;;3.13;;
4652;SDS011;9900;48.738;9.306;2023-05-15T10:04:41;3.70;;;3.40;;
4652;SDS011;9900;48.738;9.306;2023-05-15T10:07:10;3.63;;;3.30;;
4652;SDS011;9900;48.738;9.306;2023-05-15T10:09:40;6.20;;;3.13;;
4652;SDS011;9900;48.738;9.306;2023-05-15T10:12:09;3.87;;;3.40;;
4652;SDS011;9900;48.738;9.306;2023-05-15T10:14:37;5.20;;;3.30;;
4652;SDS011;9900;48.738;9.306;2023-05-15T10:17:06;6.70;;;3.00;;
4652;SDS011;9900;48.738;9.306;2023-05-15T10:19:35;3.90;;;3.30;;
4652;SDS011;9900;48.738;9.306;2023-05-15T10:22:22;3.20;;;2.90;;
4652;SDS011;9900;48.738;9.306;2023-05-15T10:24:56;4.30;;;3.40;;
4652;SDS011;9900;48.738;9.306;2023-05-15T10:27:28;3.43;;;3.13;;
4652;SDS011;9900;48.738;9.306;2023-05-15T10:29:57;5.90;;;4.00;;
4652;SDS011;9900;48.738;9.306;2023-05-15T10:32:28;3.10;;;2.80;;
4652;SDS011;9900;48.738;9.306;2023-05-15T10:34:57;4.10;;;2.80;;
4652;SDS011;9900;48.738;9.306;2023-05-15T10:37:26;3.10;;;2.80;;
4652;SDS011;9900;48.738;9.306;2023-05-15T10:39:57;3.93;;;2.43;;
4652;SDS011;9900;48.738;9.306;2023-05-15T10:42:26;4.13;;;2.50;;
4652;SDS011;9900;48.738;9.306;2023-05-15T10:44:56;5.70;;;2.80;;
4652;SDS011;9900;48.738;9.306;2023-05-15T10:47:28;3.70;;;2.43;;
4652;SDS011;9900;48.738;9.306;2023-05-15T10:49:58;2.83;;;2.63;;
4652;SDS011;9900;48.738;9.306;2023-05-15T10:52:26;6.23;;;2.70;;
4652;SDS011;9900;48.738;9.306;2023-05-15T10:54:55;2.50;;;2.30;;
4652;SDS011;9900;48.738;9.306;2023-05-15T10:57:25;2.77;;;2.57;;
4652;SDS011;9900;48.738;9.306;2023-05-15T10:59:55;2.97;;;2.77;;
4652;SDS011;9900;48.738;9.306;2023-05-15T11:02:24;3.83;;;2.77;;
4652;SDS011;9900;48.738;9.306;2023-05-15T11:04:56;2.83;;;2.20;;
4652;SDS011;9900;48.738;9.306;2023-05-15T11:07:25;2.73;;;2.53;;
4652;SDS011;9900;48.738;9.306;2023-05-15T11:09:55;2.40;;;2.03;;
4652;SDS011;9900;48.738;9.306;2023-05-15T11:12:25;4.07;;;2.67;;
4652;SDS011;9900;48.738;9.306;2023-05-15T11:15:23;2.83;;;2.50;;
4652;SDS011;9900;48.738;9.306;2023-05-15T11:18:02;2.43;;;2.23;;
4652;SDS011;9900;48.738;9.306;2023-05-15T11:20:32;1.87;;;1.77;;
4652;SDS011;9900;48.738;9.306;2023-05-15T11:23:03;2.90;;;2.20;;
4652;SDS011;9900;48.738;9.306;2023-05-15T11:25:33;3.80;;;2.30;;
4652;SDS011;9900;48.738;9.306;2023-05-15T11:28:03;1.87;;;1.67;;
4652;SDS011;9900;48.738;9.306;2023-05-15T11:30:34;2.93;;;2.03;;
4652;SDS011;9900;48.738;9.306;2023-05-15T11:33:05;2.20;;;1.93;;
4652;SDS011;9900;48.738;9.306;2023-05-15T11:35:38;2.63;;;2.40;;
4652;SDS011;9900;48.738;9.306;2023-05-15T11:38:12;2.50;;;2.30;;
4652;SDS011;9900;48.738;9.306;2023-05-15T11:40:42;3.20;;;2.37;;
4652;SDS011;9900;48.738;9.306;2023-05-15T11:43:17;2.30;;;2.03;;
4652;SDS011;9900;48.738;9.306;2023-05-15T11:45:50;2.23;;;2.03;;
4652;SDS011;9900;48.738;9.306;2023-05-15T11:48:22;5.23;;;2.40;;
4652;SDS011;9900;48.738;9.306;2023-05-15T11:50:52;3.63;;;2.03;;
4652;SDS011;9900;48.738;9.306;2023-05-15T11:53:20;2.30;;;2.10;;
4652;SDS011;9900;48.738;9.306;2023-05-15T11:55:50;2.83;;;1.70;;
4652;SDS011;9900;48.738;9.306;2023-05-15T11:58:22;2.30;;;2.10;;
4652;SDS011;9900;48.738;9.306;2023-05-15T12:00:52;2.97;;;2.77;;
4652;SDS011;9900;48.738;9.306;2023-05-15T12:03:21;2.80;;;2.60;;
4652;SDS011;9900;48.738;9.306;2023-05-15T12:05:51;2.20;;;2.00;;
4652;SDS011;9900;48.738;9.306;2023-05-15T12:08:29;2.97;;;2.23;;
4652;SDS011;9900;48.738;9.306;2023-05-15T12:10:59;2.53;;;2.33;;
4652;SDS011;9900;48.738;9.306;2023-05-15T12:13:30;3.90;;;2.63;;
4652;SDS011;9900;48.738;9.306;2023-05-15T12:15:59;3.63;;;2.30;;
4652;SDS011;9900;48.738;9.306;2023-05-15T12:18:29;4.53;;;2.67;;
4652;SDS011;9900;48.738;9.306;2023-05-15T12:20:59;3.90;;;2.30;;
4652;SDS011;9900;48.738;9.306;2023-05-15T12:23:31;10.40;;;2.60;;
4652;SDS011;9900;48.738;9.306;2023-05-15T12:26:00;4.07;;;2.77;;
4652;SDS011;9900;48.738;9.306;2023-05-15T12:28:31;3.03;;;2.60;;
4652;SDS011;9900;48.738;9.306;2023-05-15T12:31:01;4.63;;;2.00;;
4652;SDS011;9900;48.738;9.306;2023-05-15T12:33:31;2.73;;;2.10;;
4652;SDS011;9900;48.738;9.306;2023-05-15T12:36:00;2.20;;;2.07;;
4652;SDS011;9900;48.738;9.306;2023-05-15T12:38:28;2.40;;;2.00;;
4652;SDS011;9900;48.738;9.306;2023-05-15T12:40:59;2.57;;;1.80;;
4652;SDS011;9900;48.738;9.306;2023-05-15T12:43:29;2.10;;;1.90;;
4652;SDS011;9900;48.738;9.306;2023-05-15T12:46:00;2.87;;;1.80;;
4652;SDS011;9900;48.738;9.306;2023-05-15T12:48:29;3.30;;;3.00;;
4652;SDS011;9900;48.738;9.306;2023-05-15T12:51:05;5.93;;;2.33;;
4652;SDS011;9900;48.738;9.306;2023-05-15T12:53:34;2.33;;;1.90;;
4652;SDS011;9900;48.738;9.306;2023-05-15T12:56:06;2.77;;;2.00;;
4652;SDS011;9900;48.738;9.306;2023-05-15T12:58:37;3.10;;;2.07;;
4652;SDS011;9900;48.738;9.306;2023-05-15T13:01:05;3.37;;;2.30;;
4652;SDS011;9900;48.738;9.306;2023-05-15T13:03:34;2.57;;;2.17;;
4652;SDS011;9900;48.738;9.306;2023-05-15T13:06:03;3.53;;;2.13;;
4652;SDS011;9900;48.738;9.306;2023-05-15T13:08:33;3.57;;;2.40;;
4652;SDS011;9900;48.738;9.306;2023-05-15T13:11:09;5.80;;;2.00;;
4652;SDS011;9900;48.738;9.306;2023-05-15T13:13:43;2.60;;;2.40;;
4652;SDS011;9900;48.738;9.306;2023-05-15T13:16:16;2.40;;;2.20;;
4652;SDS011;9900;48.738;9.306;2023-05-15T13:18:46;2.77;;;2.20;;
4652;SDS011;9900;48.738;9.306;2023-05-15T13:21:15;4.90;;;1.97;;
4652;SDS011;9900;48.738;9.306;2023-05-15T13:23:44;5.27;;;2.47;;
4652;SDS011;9900;48.738;9.306;2023-05-15T13:26:13;10.63;;;2.13;;
4652;SDS011;9900;48.738;9.306;2023-05-15T13:28:41;2.30;;;1.87;;
4652;SDS011;9900;48.738;9.306;2023-05-15T13:31:11;1.80;;;1.70;;
4652;SDS011;9900;48.738;9.306;2023-05-15T13:33:40;3.20;;;2.27;;
4652;SDS011;9900;48.738;9.306;2023-05-15T13:36:09;11.63;;;8.70;;
4652;SDS011;9900;48.738;9.306;2023-05-15T13:38:38;4.70;;;2.73;;
4652;SDS011;9900;48.738;9.306;2023-05-15T13:41:07;2.50;;;2.13;;
4652;SDS011;9900;48.738;9.306;2023-05-15T13:43:36;2.13;;;1.93;;
4652;SDS011;9900;48.738;9.306;2023-05-15T13:46:05;3.13;;;2.40;;
4652;SDS011;9900;48.738;9.306;2023-05-15T13:48:35;2.17;;;2.00;;
4652;SDS011;9900;48.738;9.306;2023-05-15T13:51:04;3.37;;;2.40;;
4652;SDS011;9900;48.738;9.306;2023-05-15T13:53:32;2.63;;;2.43;;
4652;SDS011;9900;48.738;9.306;2023-05-15T13:56:02;2.50;;;2.27;;
4652;SDS011;9900;48.738;9.306;2023-05-15T13:58:31;3.40;;;2.50;;
4652;SDS011;9900;48.738;9.306;2023-05-15T14:01:01;3.47;;;2.53;;
4652;SDS011;9900;48.738;9.306;2023-05-15T14:03:32;6.60;;;2.60;;
4652;SDS011;9900;48.738;9.306;2023-05-15T14:06:03;2.63;;;2.40;;
4652;SDS011;9900;48.738;9.306;2023-05-15T14:08:32;4.27;;;3.00;;
4652;SDS011;9900;48.738;9.306;2023-05-15T14:11:00;3.57;;;2.30;;
4652;SDS011;9900;48.738;9.306;2023-05-15T14:13:29;3.37;;;3.07;;
4652;SDS011;9900;48.738;9.306;2023-05-15T14:15:58;3.50;;;2.80;;
4652;SDS011;9900;48.738;9.306;2023-05-15T14:18:27;3.83;;;2.83;;
4652;SDS011;9900;48.738;9.306;2023-05-15T14:20:58;3.33;;;2.93;;
4652;SDS011;9900;48.738;9.306;2023-05-15T14:23:28;3.33;;;3.03;;
4652;SDS011;9900;48.738;9.306;2023-05-15T14:25:56;3.67;;;2.30;;
4652;SDS011;9900;48.738;9.306;2023-05-15T14:28:25;3.23;;;2.80;;
4652;SDS011;9900;48.738;9.306;2023-05-15T14:30:54;3.00;;;2.70;;
4652;SDS011;9900;48.738;9.306;2023-05-15T14:33:23;4.60;;;3.13;;
4652;SDS011;9900;48.738;9.306;2023-05-15T14:35:52;4.97;;;3.00;;
4652;SDS011;9900;48.738;9.306;2023-05-15T14:38:21;13.10;;;3.20;;
4652;SDS011;9900;48.738;9.306;2023-05-15T14:40:51;4.03;;;2.73;;
4652;SDS011;9900;48.738;9.306;2023-05-15T14:43:20;4.40;;;3.17;;
4652;SDS011;9900;48.738;9.306;2023-05-15T14:45:51;4.63;;;2.97;;
4652;SDS011;9900;48.738;9.306;2023-05-15T14:48:19;2.90;;;2.70;;
4652;SDS011;9900;48.738;9.306;2023-05-15T14:50:48;3.00;;;2.70;;
4652;SDS011;9900;48.738;9.306;2023-05-15T14:53:17;4.97;;;3.13;;
4652;SDS011;9900;48.738;9.306;2023-05-15T14:55:46;3.78;;;3.00;;
4652;SDS011;9900;48.738;9.306;2023-05-15T14:58:16;4.37;;;3.00;;
4652;SDS011;9900;48.738;9.306;2023-05-15T15:00:44;3.80;;;3.10;;
4652;SDS011;9900;48.738;9.306;2023-05-15T15:03:14;7.57;;;3.10;;
4652;SDS011;9900;48.738;9.306;2023-05-15T15:05:43;5.17;;;3.00;;
4652;SDS011;9900;48.738;9.306;2023-05-15T15:08:12;4.77;;;3.13;;
4652;SDS011;9900;48.738;9.306;2023-05-15T15:10:40;3.83;;;3.10;;
4652;SDS011;9900;48.738;9.306;2023-05-15T15:13:10;3.73;;;2.80;;
4652;SDS011;9900;48.738;9.306;2023-05-15T15:15:41;5.37;;;3.70;;
4652;SDS011;9900;48.738;9.306;2023-05-15T15:18:10;5.37;;;3.40;;
4652;SDS011;9900;48.738;9.306;2023-05-15T15:20:40;2.80;;;2.60;;
4652;SDS011;9900;48.738;9.306;2023-05-15T15:23:09;4.40;;;3.43;;
4652;SDS011;9900;48.738;9.306;2023-05-15T15:25:38;4.23;;;3.83;;
4652;SDS011;9900;48.738;9.306;2023-05-15T15:28:07;5.97;;;3.17;;
4652;SDS011;9900;48.738;9.306;2023-05-15T15:30:36;3.73;;;2.40;;
4652;SDS011;9900;48.738;9.306;2023-05-15T15:33:06;3.70;;;3.17;;